sensor_id;sensor_type;location;lat;lon;timestamp;P1;durP1;ratioP1;P2;durP2;ratioP2
43042;SDS011;28667;50.758;6.096;2023-04-03T00:01:33;1.70;;;1.10;;
43042;SDS011;28667;50.758;6.096;2023-04-03T00:04:06;4.38;;;1.27;;
43042;SDS011;28667;50.758;6.096;2023-04-03T00:06:35;1.63;;;1.00;;
43042;SDS011;28667;50.758;6.096;2023-04-03T00:09:02;2.53;;;1.23;;
43042;SDS011;28667;50.758;6.096;2023-04-03T00:11:36;0.90;;;0.85;;
43042;SDS011;28667;50.758;6.096;2023-04-03T00:14:12;0.70;;;0.70;;
43042;SDS011;28667;50.758;6.096;2023-04-03T00:16:57;2.45;;;1.15;;
43042;SDS011;28667;50.758;6.096;2023-04-03T00:19:34;0.80;;;0.80;;
43042;SDS011;28667;50.758;6.096;2023-04-03T00:22:08;0.95;;;0.90;;
43042;SDS011;28667;50.758;6.096;2023-04-03T00:25:08;1.92;;;1.13;;
43042;SDS011;28667;50.758;6.096;2023-04-03T00:27:39;1.67;;;0.98;;
43042;SDS011;28667;50.758;6.096;2023-04-03T00:30:09;2.03;;;0.75;;
43042;SDS011;28667;50.758;6.096;2023-04-03T00:32:47;1.58;;;1.05;;
43042;SDS011;28667;50.758;6.096;2023-04-03T00:35:16;0.95;;;0.90;;
43042;SDS011;28667;50.758;6.096;2023-04-03T00:37:53;1.80;;;0.75;;
43042;SDS011;28667;50.758;6.096;2023-04-03T00:40:32;1.00;;;1.00;;
43042;SDS011;28667;50.758;6.096;2023-04-03T00:43:27;3.33;;;1.00;;
43042;SDS011;28667;50.758;6.096;2023-04-03T00:46:07;0.98;;;0.77;;
43042;SDS011;28667;50.758;6.096;2023-04-03T00:51:30;2.05;;;1.23;;
43042;SDS011;28667;50.758;6.096;2023-04-03T00:54:19;0.88;;;0.88;;
43042;SDS011;28667;50.758;6.096;2023-04-03T00:56:52;0.55;;;0.55;;
43042;SDS011;28667;50.758;6.096;2023-04-03T00:59:26;1.85;;;0.90;;
43042;SDS011;28667;50.758;6.096;2023-04-03T01:02:21;1.98;;;0.80;;
43042;SDS011;28667;50.758;6.096;2023-04-03T01:04:51;1.42;;;0.90;;
43042;SDS011;28667;50.758;6.096;2023-04-03T01:07:27;1.33;;;1.10;;
43042;SDS011;28667;50.758;6.096;2023-04-03T01:10:17;1.27;;;0.85;;
43042;SDS011;28667;50.758;6.096;2023-04-03T01:12:53;1.00;;;0.90;;
43042;SDS011;28667;50.758;6.096;2023-04-03T01:15:27;0.80;;;0.80;;
43042;SDS011;28667;50.758;6.096;2023-04-03T01:18:02;2.30;;;0.93;;
43042;SDS011;28667;50.758;6.096;2023-04-03T01:21:28;2.40;;;1.13;;
43042;SDS011;28667;50.758;6.096;2023-04-03T01:23:50;1.95;;;1.23;;
43042;SDS011;28667;50.758;6.096;2023-04-03T01:26:23;2.70;;;1.45;;
43042;SDS011;28667;50.758;6.096;2023-04-03T01:28:54;4.78;;;1.27;;
43042;SDS011;28667;50.758;6.096;2023-04-03T01:34:12;1.27;;;1.05;;
43042;SDS011;28667;50.758;6.096;2023-04-03T01:36:53;3.10;;;0.90;;
43042;SDS011;28667;50.758;6.096;2023-04-03T01:39:24;0.73;;;0.70;;
43042;SDS011;28667;50.758;6.096;2023-04-03T01:41:53;2.40;;;1.35;;
43042;SDS011;28667;50.758;6.096;2023-04-03T01:44:49;2.92;;;0.90;;
43042;SDS011;28667;50.758;6.096;2023-04-03T01:47:43;1.15;;;0.93;;
43042;SDS011;28667;50.758;6.096;2023-04-03T01:50:25;1.70;;;1.00;;
43042;SDS011;28667;50.758;6.096;2023-04-03T01:52:57;7.22;;;1.25;;
43042;SDS011;28667;50.758;6.096;2023-04-03T01:55:52;1.00;;;0.88;;
43042;SDS011;28667;50.758;6.096;2023-04-03T01:58:32;1.90;;;1.10;;
43042;SDS011;28667;50.758;6.096;2023-04-03T02:01:02;0.95;;;0.93;;
43042;SDS011;28667;50.758;6.096;2023-04-03T02:03:31;0.75;;;0.70;;
43042;SDS011;28667;50.758;6.096;2023-04-03T02:06:04;1.73;;;1.48;;
43042;SDS011;28667;50.758;6.096;2023-04-03T02:08:38;1.15;;;1.05;;
43042;SDS011;28667;50.758;6.096;2023-04-03T02:11:06;2.05;;;1.05;;
43042;SDS011;28667;50.758;6.096;2023-04-03T02:13:33;1.17;;;0.98;;
43042;SDS011;28667;50.758;6.096;2023-04-03T02:16:06;1.00;;;0.90;;
43042;SDS011;28667;50.758;6.096;2023-04-03T02:18:38;1.02;;;0.90;;
43042;SDS011;28667;50.758;6.096;2023-04-03T02:21:17;2.67;;;0.82;;
43042;SDS011;28667;50.758;6.096;2023-04-03T02:23:49;1.70;;;0.98;;
43042;SDS011;28667;50.758;6.096;2023-04-03T02:26:27;2.65;;;1.05;;
43042;SDS011;28667;50.758;6.096;2023-04-03T02:28:55;1.38;;;1.00;;
43042;SDS011;28667;50.758;6.096;2023-04-03T02:31:31;1.65;;;0.80;;
43042;SDS011;28667;50.758;6.096;2023-04-03T02:34:01;2.05;;;1.45;;
43042;SDS011;28667;50.758;6.096;2023-04-03T02:36:34;1.23;;;1.13;;
43042;SDS011;28667;50.758;6.096;2023-04-03T02:39:10;0.88;;;0.88;;
43042;SDS011;28667;50.758;6.096;2023-04-03T02:41:42;1.08;;;0.88;;
43042;SDS011;28667;50.758;6.096;2023-04-03T02:44:20;0.50;;;0.50;;
43042;SDS011;28667;50.758;6.096;2023-04-03T02:46:51;3.53;;;1.30;;
43042;SDS011;28667;50.758;6.096;2023-04-03T02:49:22;4.35;;;1.10;;
43042;SDS011;28667;50.758;6.096;2023-04-03T02:51:49;2.08;;;0.80;;
43042;SDS011;28667;50.758;6.096;2023-04-03T02:54:25;1.93;;;1.23;;
43042;SDS011;28667;50.758;6.096;2023-04-03T02:57:02;1.95;;;1.08;;
43042;SDS011;28667;50.758;6.096;2023-04-03T02:59:38;1.15;;;1.08;;
43042;SDS011;28667;50.758;6.096;2023-04-03T03:02:14;2.53;;;1.10;;
43042;SDS011;28667;50.758;6.096;2023-04-03T03:04:43;2.03;;;1.08;;
43042;SDS011;28667;50.758;6.096;2023-04-03T03:07:16;0.98;;;0.85;;
43042;SDS011;28667;50.758;6.096;2023-04-03T03:10:13;2.88;;;1.00;;
43042;SDS011;28667;50.758;6.096;2023-04-03T03:12:54;2.45;;;1.02;;
43042;SDS011;28667;50.758;6.096;2023-04-03T03:15:25;2.15;;;1.23;;
43042;SDS011;28667;50.758;6.096;2023-04-03T03:17:52;2.22;;;0.98;;
43042;SDS011;28667;50.758;6.096;2023-04-03T03:20:26;2.72;;;1.35;;
43042;SDS011;28667;50.758;6.096;2023-04-03T03:23:14;1.85;;;1.35;;
43042;SDS011;28667;50.758;6.096;2023-04-03T03:26:05;1.52;;;1.02;;
43042;SDS011;28667;50.758;6.096;2023-04-03T03:28:39;1.48;;;1.38;;
43042;SDS011;28667;50.758;6.096;2023-04-03T03:31:08;1.35;;;1.10;;
43042;SDS011;28667;50.758;6.096;2023-04-03T03:33:47;1.90;;;1.15;;
43042;SDS011;28667;50.758;6.096;2023-04-03T03:36:30;1.20;;;1.10;;
43042;SDS011;28667;50.758;6.096;2023-04-03T03:39:10;1.17;;;0.98;;
43042;SDS011;28667;50.758;6.096;2023-04-03T03:41:45;1.67;;;1.27;;
43042;SDS011;28667;50.758;6.096;2023-04-03T03:44:19;1.23;;;1.13;;
43042;SDS011;28667;50.758;6.096;2023-04-03T03:46:57;2.42;;;1.58;;
43042;SDS011;28667;50.758;6.096;2023-04-03T03:49:29;6.00;;;1.52;;
43042;SDS011;28667;50.758;6.096;2023-04-03T03:52:02;1.13;;;1.03;;
43042;SDS011;28667;50.758;6.096;2023-04-03T03:54:32;1.00;;;0.98;;
43042;SDS011;28667;50.758;6.096;2023-04-03T03:57:08;2.10;;;1.10;;
43042;SDS011;28667;50.758;6.096;2023-04-03T03:59:41;2.63;;;1.20;;
43042;SDS011;28667;50.758;6.096;2023-04-03T04:02:14;1.13;;;0.73;;
43042;SDS011;28667;50.758;6.096;2023-04-03T04:04:42;0.90;;;0.90;;
43042;SDS011;28667;50.758;6.096;2023-04-03T04:07:23;2.25;;;1.48;;
43042;SDS011;28667;50.758;6.096;2023-04-03T04:10:11;1.42;;;0.98;;
43042;SDS011;28667;50.758;6.096;2023-04-03T04:13:15;1.75;;;1.33;;
43042;SDS011;28667;50.758;6.096;2023-04-03T04:15:47;3.22;;;1.20;;
43042;SDS011;28667;50.758;6.096;2023-04-03T04:18:20;3.42;;;1.17;;
43042;SDS011;28667;50.758;6.096;2023-04-03T04:20:59;1.75;;;1.23;;
43042;SDS011;28667;50.758;6.096;2023-04-03T04:23:29;4.05;;;1.80;;
43042;SDS011;28667;50.758;6.096;2023-04-03T04:26:01;2.25;;;1.40;;
43042;SDS011;28667;50.758;6.096;2023-04-03T04:28:43;1.70;;;1.50;;
43042;SDS011;28667;50.758;6.096;2023-04-03T04:31:21;3.55;;;1.45;;
43042;SDS011;28667;50.758;6.096;2023-04-03T04:33:52;1.52;;;1.40;;
43042;SDS011;28667;50.758;6.096;2023-04-03T04:36:27;4.18;;;1.75;;
43042;SDS011;28667;50.758;6.096;2023-04-03T04:38:53;8.82;;;1.58;;
43042;SDS011;28667;50.758;6.096;2023-04-03T04:41:26;2.65;;;1.58;;
43042;SDS011;28667;50.758;6.096;2023-04-03T04:44:20;1.67;;;1.20;;
43042;SDS011;28667;50.758;6.096;2023-04-03T04:47:08;1.17;;;1.13;;
43042;SDS011;28667;50.758;6.096;2023-04-03T04:49:47;4.50;;;1.63;;
43042;SDS011;28667;50.758;6.096;2023-04-03T04:52:27;1.48;;;1.20;;
43042;SDS011;28667;50.758;6.096;2023-04-03T04:55:10;2.72;;;1.55;;
43042;SDS011;28667;50.758;6.096;2023-04-03T04:57:37;1.63;;;1.52;;
43042;SDS011;28667;50.758;6.096;2023-04-03T05:00:15;2.85;;;1.25;;
43042;SDS011;28667;50.758;6.096;2023-04-03T05:02:52;3.40;;;1.50;;
43042;SDS011;28667;50.758;6.096;2023-04-03T05:05:25;2.45;;;1.42;;
43042;SDS011;28667;50.758;6.096;2023-04-03T05:08:13;2.53;;;1.60;;
43042;SDS011;28667;50.758;6.096;2023-04-03T05:10:45;2.45;;;1.55;;
43042;SDS011;28667;50.758;6.096;2023-04-03T05:13:13;2.28;;;1.63;;
43042;SDS011;28667;50.758;6.096;2023-04-03T05:15:52;1.38;;;1.20;;
43042;SDS011;28667;50.758;6.096;2023-04-03T05:18:31;3.58;;;2.03;;
43042;SDS011;28667;50.758;6.096;2023-04-03T05:21:06;5.82;;;1.95;;
43042;SDS011;28667;50.758;6.096;2023-04-03T05:23:41;2.25;;;1.58;;
43042;SDS011;28667;50.758;6.096;2023-04-03T05:26:22;2.67;;;1.95;;
43042;SDS011;28667;50.758;6.096;2023-04-03T05:28:58;5.25;;;2.28;;
43042;SDS011;28667;50.758;6.096;2023-04-03T05:31:27;2.47;;;2.00;;
43042;SDS011;28667;50.758;6.096;2023-04-03T05:34:33;1.85;;;1.75;;
43042;SDS011;28667;50.758;6.096;2023-04-03T05:37:27;2.30;;;1.90;;
43042;SDS011;28667;50.758;6.096;2023-04-03T05:40:14;3.22;;;1.90;;
43042;SDS011;28667;50.758;6.096;2023-04-03T05:42:56;2.22;;;1.73;;
43042;SDS011;28667;50.758;6.096;2023-04-03T05:45:33;1.48;;;1.27;;
43042;SDS011;28667;50.758;6.096;2023-04-03T05:48:01;3.88;;;1.63;;
43042;SDS011;28667;50.758;6.096;2023-04-03T05:50:32;2.38;;;1.80;;
43042;SDS011;28667;50.758;6.096;2023-04-03T05:53:00;7.50;;;2.05;;
43042;SDS011;28667;50.758;6.096;2023-04-03T05:55:32;3.63;;;2.47;;
43042;SDS011;28667;50.758;6.096;2023-04-03T05:58:16;4.68;;;1.90;;
43042;SDS011;28667;50.758;6.096;2023-04-03T06:00:58;2.58;;;2.03;;
43042;SDS011;28667;50.758;6.096;2023-04-03T06:03:27;2.55;;;1.85;;
43042;SDS011;28667;50.758;6.096;2023-04-03T06:05:53;1.85;;;1.73;;
43042;SDS011;28667;50.758;6.096;2023-04-03T06:08:33;4.35;;;1.90;;
43042;SDS011;28667;50.758;6.096;2023-04-03T06:11:24;2.78;;;2.17;;
43042;SDS011;28667;50.758;6.096;2023-04-03T06:13:54;1.98;;;1.67;;
43042;SDS011;28667;50.758;6.096;2023-04-03T06:16:33;2.90;;;1.92;;
43042;SDS011;28667;50.758;6.096;2023-04-03T06:19:00;3.97;;;2.22;;
43042;SDS011;28667;50.758;6.096;2023-04-03T06:21:46;3.85;;;1.98;;
43042;SDS011;28667;50.758;6.096;2023-04-03T06:24:16;3.33;;;2.42;;
43042;SDS011;28667;50.758;6.096;2023-04-03T06:26:47;3.85;;;2.30;;
43042;SDS011;28667;50.758;6.096;2023-04-03T06:29:20;2.28;;;2.03;;
43042;SDS011;28667;50.758;6.096;2023-04-03T06:31:56;4.30;;;2.50;;
43042;SDS011;28667;50.758;6.096;2023-04-03T06:34:27;4.68;;;4.10;;
43042;SDS011;28667;50.758;6.096;2023-04-03T06:36:54;6.63;;;3.85;;
43042;SDS011;28667;50.758;6.096;2023-04-03T06:39:20;7.30;;;3.70;;
43042;SDS011;28667;50.758;6.096;2023-04-03T06:42:03;7.93;;;4.60;;
43042;SDS011;28667;50.758;6.096;2023-04-03T06:44:36;7.25;;;4.10;;
43042;SDS011;28667;50.758;6.096;2023-04-03T06:47:11;5.72;;;3.17;;
43042;SDS011;28667;50.758;6.096;2023-04-03T06:49:57;6.20;;;3.15;;
43042;SDS011;28667;50.758;6.096;2023-04-03T06:52:30;5.55;;;3.00;;
43042;SDS011;28667;50.758;6.096;2023-04-03T06:55:12;5.72;;;3.55;;
43042;SDS011;28667;50.758;6.096;2023-04-03T06:57:45;9.45;;;4.35;;
43042;SDS011;28667;50.758;6.096;2023-04-03T07:00:20;5.13;;;3.53;;
43042;SDS011;28667;50.758;6.096;2023-04-03T07:02:49;6.07;;;4.32;;
43042;SDS011;28667;50.758;6.096;2023-04-03T07:05:24;7.18;;;2.78;;
43042;SDS011;28667;50.758;6.096;2023-04-03T07:07:54;4.70;;;3.35;;
43042;SDS011;28667;50.758;6.096;2023-04-03T07:10:23;5.38;;;4.03;;
43042;SDS011;28667;50.758;6.096;2023-04-03T07:12:51;3.85;;;2.90;;
43042;SDS011;28667;50.758;6.096;2023-04-03T07:15:22;4.97;;;3.40;;
43042;SDS011;28667;50.758;6.096;2023-04-03T07:17:54;6.43;;;2.85;;
43042;SDS011;28667;50.758;6.096;2023-04-03T07:20:22;4.43;;;2.55;;
43042;SDS011;28667;50.758;6.096;2023-04-03T07:22:49;4.22;;;2.95;;
43042;SDS011;28667;50.758;6.096;2023-04-03T07:25:24;2.58;;;2.17;;
43042;SDS011;28667;50.758;6.096;2023-04-03T07:27:56;5.05;;;2.05;;
43042;SDS011;28667;50.758;6.096;2023-04-03T07:30:26;3.30;;;2.20;;
43042;SDS011;28667;50.758;6.096;2023-04-03T07:33:10;2.55;;;1.65;;
43042;SDS011;28667;50.758;6.096;2023-04-03T07:35:47;5.40;;;2.85;;
43042;SDS011;28667;50.758;6.096;2023-04-03T07:38:15;3.60;;;2.35;;
43042;SDS011;28667;50.758;6.096;2023-04-03T07:40:48;2.17;;;1.70;;
43042;SDS011;28667;50.758;6.096;2023-04-03T07:43:29;2.20;;;1.83;;
43042;SDS011;28667;50.758;6.096;2023-04-03T07:46:08;2.13;;;1.80;;
43042;SDS011;28667;50.758;6.096;2023-04-03T07:48:47;1.85;;;1.75;;
43042;SDS011;28667;50.758;6.096;2023-04-03T07:51:17;3.38;;;2.13;;
43042;SDS011;28667;50.758;6.096;2023-04-03T07:53:54;2.15;;;1.77;;
43042;SDS011;28667;50.758;6.096;2023-04-03T07:56:29;1.88;;;1.50;;
43042;SDS011;28667;50.758;6.096;2023-04-03T07:59:00;3.33;;;2.05;;
43042;SDS011;28667;50.758;6.096;2023-04-03T08:01:28;2.28;;;1.38;;
43042;SDS011;28667;50.758;6.096;2023-04-03T08:04:06;4.75;;;1.40;;
43042;SDS011;28667;50.758;6.096;2023-04-03T08:06:33;1.98;;;1.58;;
43042;SDS011;28667;50.758;6.096;2023-04-03T08:09:05;1.45;;;1.13;;
43042;SDS011;28667;50.758;6.096;2023-04-03T08:11:48;1.65;;;1.40;;
43042;SDS011;28667;50.758;6.096;2023-04-03T08:14:19;2.47;;;1.13;;
43042;SDS011;28667;50.758;6.096;2023-04-03T08:16:49;1.40;;;1.27;;
43042;SDS011;28667;50.758;6.096;2023-04-03T08:19:43;2.13;;;1.15;;
43042;SDS011;28667;50.758;6.096;2023-04-03T08:22:12;2.60;;;1.38;;
43042;SDS011;28667;50.758;6.096;2023-04-03T08:24:38;1.35;;;1.25;;
43042;SDS011;28667;50.758;6.096;2023-04-03T08:27:14;5.53;;;2.03;;
43042;SDS011;28667;50.758;6.096;2023-04-03T08:30:01;2.00;;;1.73;;
43042;SDS011;28667;50.758;6.096;2023-04-03T08:32:30;1.70;;;1.25;;
43042;SDS011;28667;50.758;6.096;2023-04-03T08:34:58;7.63;;;1.60;;
43042;SDS011;28667;50.758;6.096;2023-04-03T08:37:34;5.07;;;1.42;;
43042;SDS011;28667;50.758;6.096;2023-04-03T08:40:04;3.90;;;1.50;;
43042;SDS011;28667;50.758;6.096;2023-04-03T08:42:36;2.17;;;1.30;;
43042;SDS011;28667;50.758;6.096;2023-04-03T08:48:14;2.80;;;1.60;;
43042;SDS011;28667;50.758;6.096;2023-04-03T08:51:21;5.60;;;1.65;;
43042;SDS011;28667;50.758;6.096;2023-04-03T08:54:12;3.15;;;1.20;;
43042;SDS011;28667;50.758;6.096;2023-04-03T08:57:03;6.60;;;1.80;;
43042;SDS011;28667;50.758;6.096;2023-04-03T08:59:46;3.40;;;1.38;;
43042;SDS011;28667;50.758;6.096;2023-04-03T09:02:33;3.75;;;1.15;;
43042;SDS011;28667;50.758;6.096;2023-04-03T09:08:28;3.45;;;1.40;;
43042;SDS011;28667;50.758;6.096;2023-04-03T09:14:18;8.73;;;1.83;;
43042;SDS011;28667;50.758;6.096;2023-04-03T09:16:56;5.35;;;1.42;;
43042;SDS011;28667;50.758;6.096;2023-04-03T09:22:27;6.63;;;1.20;;
43042;SDS011;28667;50.758;6.096;2023-04-03T09:28:14;4.43;;;2.35;;
43042;SDS011;28667;50.758;6.096;2023-04-03T09:30:45;5.65;;;2.10;;
43042;SDS011;28667;50.758;6.096;2023-04-03T09:33:17;5.38;;;1.88;;
43042;SDS011;28667;50.758;6.096;2023-04-03T09:35:46;5.68;;;1.50;;
43042;SDS011;28667;50.758;6.096;2023-04-03T09:38:20;1.75;;;0.88;;
43042;SDS011;28667;50.758;6.096;2023-04-03T09:44:00;2.47;;;1.80;;
43042;SDS011;28667;50.758;6.096;2023-04-03T09:46:38;1.30;;;1.17;;
43042;SDS011;28667;50.758;6.096;2023-04-03T09:49:08;0.90;;;0.90;;
43042;SDS011;28667;50.758;6.096;2023-04-03T09:51:45;2.78;;;1.30;;
43042;SDS011;28667;50.758;6.096;2023-04-03T09:54:39;5.57;;;1.65;;
43042;SDS011;28667;50.758;6.096;2023-04-03T09:57:10;1.42;;;1.30;;
43042;SDS011;28667;50.758;6.096;2023-04-03T10:00:26;1.67;;;1.20;;
43042;SDS011;28667;50.758;6.096;2023-04-03T10:03:48;3.60;;;1.60;;
43042;SDS011;28667;50.758;6.096;2023-04-03T10:06:22;3.38;;;1.10;;
43042;SDS011;28667;50.758;6.096;2023-04-03T10:12:10;2.75;;;1.15;;
43042;SDS011;28667;50.758;6.096;2023-04-03T10:14:58;1.95;;;0.98;;
43042;SDS011;28667;50.758;6.096;2023-04-03T10:18:00;1.10;;;0.88;;
43042;SDS011;28667;50.758;6.096;2023-04-03T10:20:48;4.07;;;1.60;;
43042;SDS011;28667;50.758;6.096;2023-04-03T10:23:51;3.08;;;0.73;;
43042;SDS011;28667;50.758;6.096;2023-04-03T10:27:17;1.90;;;0.95;;
43042;SDS011;28667;50.758;6.096;2023-04-03T10:45:48;2.47;;;0.88;;
43042;SDS011;28667;50.758;6.096;2023-04-03T10:48:46;0.95;;;0.90;;
43042;SDS011;28667;50.758;6.096;2023-04-03T10:51:37;1.50;;;0.98;;
43042;SDS011;28667;50.758;6.096;2023-04-03T10:57:30;2.58;;;0.75;;
43042;SDS011;28667;50.758;6.096;2023-04-03T11:00:07;1.17;;;0.82;;
43042;SDS011;28667;50.758;6.096;2023-04-03T11:03:00;1.50;;;0.63;;
43042;SDS011;28667;50.758;6.096;2023-04-03T11:05:53;1.05;;;0.73;;
43042;SDS011;28667;50.758;6.096;2023-04-03T11:09:15;2.85;;;0.90;;
43042;SDS011;28667;50.758;6.096;2023-04-03T11:11:38;1.60;;;0.80;;
43042;SDS011;28667;50.758;6.096;2023-04-03T11:14:26;1.50;;;0.88;;
43042;SDS011;28667;50.758;6.096;2023-04-03T11:25:59;1.02;;;0.50;;
43042;SDS011;28667;50.758;6.096;2023-04-03T11:28:45;1.08;;;0.70;;
43042;SDS011;28667;50.758;6.096;2023-04-03T11:31:40;1.25;;;0.85;;
43042;SDS011;28667;50.758;6.096;2023-04-03T11:39:57;0.93;;;0.50;;
43042;SDS011;28667;50.758;6.096;2023-04-03T11:42:46;1.17;;;0.38;;
43042;SDS011;28667;50.758;6.096;2023-04-03T11:53:54;6.90;;;0.70;;
43042;SDS011;28667;50.758;6.096;2023-04-03T11:57:45;1.20;;;0.55;;
43042;SDS011;28667;50.758;6.096;2023-04-03T12:09:54;2.25;;;0.52;;
43042;SDS011;28667;50.758;6.096;2023-04-03T12:12:31;0.35;;;0.35;;
43042;SDS011;28667;50.758;6.096;2023-04-03T12:24:28;2.63;;;0.80;;
43042;SDS011;28667;50.758;6.096;2023-04-03T12:33:17;1.27;;;0.47;;
43042;SDS011;28667;50.758;6.096;2023-04-03T12:36:28;0.63;;;0.60;;
43042;SDS011;28667;50.758;6.096;2023-04-03T12:42:53;0.30;;;0.28;;
43042;SDS011;28667;50.758;6.096;2023-04-03T12:45:40;5.10;;;0.70;;
43042;SDS011;28667;50.758;6.096;2023-04-03T12:48:27;1.45;;;0.50;;
43042;SDS011;28667;50.758;6.096;2023-04-03T12:51:34;0.93;;;0.52;;
43042;SDS011;28667;50.758;6.096;2023-04-03T12:57:20;0.95;;;0.50;;
43042;SDS011;28667;50.758;6.096;2023-04-03T12:59:56;2.28;;;0.68;;
43042;SDS011;28667;50.758;6.096;2023-04-03T13:02:29;1.02;;;0.60;;
43042;SDS011;28667;50.758;6.096;2023-04-03T13:05:08;1.95;;;0.50;;
43042;SDS011;28667;50.758;6.096;2023-04-03T13:07:45;1.73;;;0.52;;
43042;SDS011;28667;50.758;6.096;2023-04-03T13:10:30;1.83;;;0.70;;
43042;SDS011;28667;50.758;6.096;2023-04-03T13:13:17;1.10;;;0.57;;
43042;SDS011;28667;50.758;6.096;2023-04-03T13:15:53;0.40;;;0.30;;
43042;SDS011;28667;50.758;6.096;2023-04-03T13:21:28;4.05;;;0.77;;
43042;SDS011;28667;50.758;6.096;2023-04-03T13:24:16;2.03;;;1.05;;
43042;SDS011;28667;50.758;6.096;2023-04-03T13:26:48;1.23;;;0.70;;
43042;SDS011;28667;50.758;6.096;2023-04-03T13:29:20;2.70;;;0.82;;
43042;SDS011;28667;50.758;6.096;2023-04-03T13:31:56;2.10;;;0.73;;
43042;SDS011;28667;50.758;6.096;2023-04-03T13:34:42;0.82;;;0.70;;
43042;SDS011;28667;50.758;6.096;2023-04-03T13:37:24;1.70;;;0.57;;
43042;SDS011;28667;50.758;6.096;2023-04-03T13:42:34;1.27;;;0.73;;
43042;SDS011;28667;50.758;6.096;2023-04-03T13:48:22;0.60;;;0.30;;
43042;SDS011;28667;50.758;6.096;2023-04-03T13:51:02;0.60;;;0.40;;
43042;SDS011;28667;50.758;6.096;2023-04-03T13:53:47;2.95;;;0.60;;
43042;SDS011;28667;50.758;6.096;2023-04-03T13:56:37;0.40;;;0.40;;
43042;SDS011;28667;50.758;6.096;2023-04-03T14:04:32;0.73;;;0.25;;
43042;SDS011;28667;50.758;6.096;2023-04-03T14:07:38;0.30;;;0.30;;
43042;SDS011;28667;50.758;6.096;2023-04-03T14:10:11;0.85;;;0.60;;
43042;SDS011;28667;50.758;6.096;2023-04-03T14:12:39;1.65;;;0.73;;
43042;SDS011;28667;50.758;6.096;2023-04-03T14:15:22;1.42;;;0.60;;
43042;SDS011;28667;50.758;6.096;2023-04-03T14:18:30;2.13;;;0.55;;
43042;SDS011;28667;50.758;6.096;2023-04-03T14:21:04;1.10;;;0.55;;
43042;SDS011;28667;50.758;6.096;2023-04-03T14:23:43;0.77;;;0.47;;
43042;SDS011;28667;50.758;6.096;2023-04-03T14:26:20;0.98;;;0.50;;
43042;SDS011;28667;50.758;6.096;2023-04-03T14:28:55;0.85;;;0.63;;
43042;SDS011;28667;50.758;6.096;2023-04-03T14:31:24;0.68;;;0.50;;
43042;SDS011;28667;50.758;6.096;2023-04-03T14:34:01;0.38;;;0.38;;
43042;SDS011;28667;50.758;6.096;2023-04-03T14:36:42;0.68;;;0.47;;
43042;SDS011;28667;50.758;6.096;2023-04-03T14:39:26;0.43;;;0.40;;
43042;SDS011;28667;50.758;6.096;2023-04-03T14:41:57;1.27;;;0.47;;
43042;SDS011;28667;50.758;6.096;2023-04-03T14:44:32;0.45;;;0.30;;
43042;SDS011;28667;50.758;6.096;2023-04-03T14:47:02;2.83;;;0.50;;
43042;SDS011;28667;50.758;6.096;2023-04-03T14:49:29;1.20;;;0.40;;
43042;SDS011;28667;50.758;6.096;2023-04-03T14:52:21;1.05;;;0.52;;
43042;SDS011;28667;50.758;6.096;2023-04-03T14:54:53;3.40;;;0.60;;
43042;SDS011;28667;50.758;6.096;2023-04-03T14:57:25;0.35;;;0.32;;
43042;SDS011;28667;50.758;6.096;2023-04-03T14:59:55;0.30;;;0.30;;
43042;SDS011;28667;50.758;6.096;2023-04-03T15:05:02;2.13;;;0.60;;
43042;SDS011;28667;50.758;6.096;2023-04-03T15:07:59;1.00;;;0.40;;
43042;SDS011;28667;50.758;6.096;2023-04-03T15:10:40;0.60;;;0.45;;
43042;SDS011;28667;50.758;6.096;2023-04-03T15:13:18;0.65;;;0.45;;
43042;SDS011;28667;50.758;6.096;2023-04-03T15:15:50;1.20;;;0.40;;
43042;SDS011;28667;50.758;6.096;2023-04-03T15:18:22;3.03;;;0.50;;
43042;SDS011;28667;50.758;6.096;2023-04-03T15:21:12;1.00;;;0.50;;
43042;SDS011;28667;50.758;6.096;2023-04-03T15:23:38;3.70;;;0.85;;
43042;SDS011;28667;50.758;6.096;2023-04-03T15:26:05;1.85;;;0.57;;
43042;SDS011;28667;50.758;6.096;2023-04-03T15:28:46;0.40;;;0.30;;
43042;SDS011;28667;50.758;6.096;2023-04-03T15:31:14;2.15;;;0.55;;
43042;SDS011;28667;50.758;6.096;2023-04-03T15:33:41;0.60;;;0.43;;
43042;SDS011;28667;50.758;6.096;2023-04-03T15:36:14;0.63;;;0.50;;
43042;SDS011;28667;50.758;6.096;2023-04-03T15:38:51;1.30;;;0.73;;
43042;SDS011;28667;50.758;6.096;2023-04-03T15:41:40;1.02;;;0.40;;
43042;SDS011;28667;50.758;6.096;2023-04-03T15:44:12;0.50;;;0.47;;
43042;SDS011;28667;50.758;6.096;2023-04-03T15:46:44;2.00;;;0.40;;
43042;SDS011;28667;50.758;6.096;2023-04-03T15:49:13;1.73;;;0.90;;
43042;SDS011;28667;50.758;6.096;2023-04-03T15:52:03;3.05;;;0.30;;
43042;SDS011;28667;50.758;6.096;2023-04-03T15:54:31;1.02;;;0.57;;
43042;SDS011;28667;50.758;6.096;2023-04-03T15:57:07;2.67;;;0.20;;
43042;SDS011;28667;50.758;6.096;2023-04-03T15:59:35;0.80;;;0.40;;
43042;SDS011;28667;50.758;6.096;2023-04-03T16:02:07;1.85;;;0.80;;
43042;SDS011;28667;50.758;6.096;2023-04-03T16:04:45;1.05;;;0.40;;
43042;SDS011;28667;50.758;6.096;2023-04-03T16:07:38;2.28;;;0.70;;
43042;SDS011;28667;50.758;6.096;2023-04-03T16:10:10;0.80;;;0.52;;
43042;SDS011;28667;50.758;6.096;2023-04-03T16:13:04;0.60;;;0.50;;
43042;SDS011;28667;50.758;6.096;2023-04-03T16:15:35;1.55;;;0.40;;
43042;SDS011;28667;50.758;6.096;2023-04-03T16:18:14;2.65;;;0.88;;
43042;SDS011;28667;50.758;6.096;2023-04-03T16:20:54;1.45;;;0.40;;
43042;SDS011;28667;50.758;6.096;2023-04-03T16:23:26;0.77;;;0.50;;
43042;SDS011;28667;50.758;6.096;2023-04-03T16:25:53;0.50;;;0.50;;
43042;SDS011;28667;50.758;6.096;2023-04-03T16:28:22;0.65;;;0.47;;
43042;SDS011;28667;50.758;6.096;2023-04-03T16:30:50;0.95;;;0.45;;
43042;SDS011;28667;50.758;6.096;2023-04-03T16:33:21;0.50;;;0.47;;
43042;SDS011;28667;50.758;6.096;2023-04-03T16:35:51;0.73;;;0.32;;
43042;SDS011;28667;50.758;6.096;2023-04-03T16:38:29;4.80;;;0.40;;
43042;SDS011;28667;50.758;6.096;2023-04-03T16:41:05;1.38;;;0.50;;
43042;SDS011;28667;50.758;6.096;2023-04-03T16:44:11;0.50;;;0.50;;
43042;SDS011;28667;50.758;6.096;2023-04-03T16:46:41;2.10;;;0.93;;
43042;SDS011;28667;50.758;6.096;2023-04-03T16:51:48;3.05;;;0.80;;
43042;SDS011;28667;50.758;6.096;2023-04-03T16:54:17;1.23;;;0.68;;
43042;SDS011;28667;50.758;6.096;2023-04-03T16:56:43;0.47;;;0.40;;
43042;SDS011;28667;50.758;6.096;2023-04-03T17:01:46;3.58;;;0.52;;
43042;SDS011;28667;50.758;6.096;2023-04-03T17:04:25;2.40;;;0.50;;
43042;SDS011;28667;50.758;6.096;2023-04-03T17:06:56;3.33;;;0.68;;
43042;SDS011;28667;50.758;6.096;2023-04-03T17:09:26;1.55;;;0.70;;
43042;SDS011;28667;50.758;6.096;2023-04-03T17:11:58;5.15;;;0.60;;
43042;SDS011;28667;50.758;6.096;2023-04-03T17:14:47;1.55;;;0.68;;
43042;SDS011;28667;50.758;6.096;2023-04-03T17:17:13;1.90;;;0.65;;
43042;SDS011;28667;50.758;6.096;2023-04-03T17:19:48;0.95;;;0.50;;
43042;SDS011;28667;50.758;6.096;2023-04-03T17:22:19;1.30;;;0.47;;
43042;SDS011;28667;50.758;6.096;2023-04-03T17:24:58;2.35;;;0.40;;
43042;SDS011;28667;50.758;6.096;2023-04-03T17:27:33;1.13;;;0.55;;
43042;SDS011;28667;50.758;6.096;2023-04-03T17:30:01;9.32;;;0.70;;
43042;SDS011;28667;50.758;6.096;2023-04-03T17:32:28;0.80;;;0.38;;
43042;SDS011;28667;50.758;6.096;2023-04-03T17:34:59;3.05;;;0.98;;
43042;SDS011;28667;50.758;6.096;2023-04-03T17:37:29;1.48;;;0.88;;
43042;SDS011;28667;50.758;6.096;2023-04-03T17:39:58;3.08;;;0.80;;
43042;SDS011;28667;50.758;6.096;2023-04-03T17:42:31;1.30;;;0.80;;
43042;SDS011;28667;50.758;6.096;2023-04-03T17:44:57;3.97;;;1.30;;
43042;SDS011;28667;50.758;6.096;2023-04-03T17:47:29;1.95;;;0.70;;
43042;SDS011;28667;50.758;6.096;2023-04-03T17:50:02;3.67;;;3.38;;
43042;SDS011;28667;50.758;6.096;2023-04-03T17:52:30;6.93;;;1.35;;
43042;SDS011;28667;50.758;6.096;2023-04-03T17:55:02;0.80;;;0.75;;